Flight Track Log - Related Links

Times and Time Zones

All times are in EDT time to prevent confusion due to time zone crossing. See the XOJ552 flight status page for this flight to view local times or setup timezone preferences in your user account.

Time Position Orientation Groundspeed Altitude Reporting Facility
EDT Latitude Longitude Course Direction KTS MPH feet Rate Location/Type
Mon 10:31:22 PM 34.1422 -118.4086 224° Southwest 219 252 4,700  Level Los Angeles Center
Mon 10:32:23 PM 34.1583 -118.4797 285° West 262 302 7,800 3,024 Climbing Los Angeles Center
Mon 10:33:25 PM 34.2278 -118.5211 334° Northwest 276 318 10,900 2,613 Climbing Los Angeles Center
Mon 10:34:27 PM 34.3289 -118.5817 334° Northwest 338 389 13,200 2,293 Climbing Los Angeles Center
Mon 10:35:28 PM 34.4267 -118.6383 334° Northwest 388 447 15,600 2,341 Climbing Los Angeles Center
Mon 10:36:30 PM 34.5264 -118.6947 335° Northwest 397 457 18,000 2,177 Climbing Los Angeles Center
Mon 10:37:32 PM 34.6275 -118.7553 334° Northwest 405 466 20,100 1,951 Climbing Los Angeles Center
Mon 10:38:33 PM 34.7314 -118.8197 333° Northwest 418 481 22,000 1,561 Climbing Los Angeles Center
Mon 10:39:35 PM 34.8383 -118.8914 331° Northwest 433 498 23,300 1,355 Climbing Los Angeles Center
Mon 10:40:37 PM 34.9469 -118.9789 327° Northwest 451 519 24,800 1,463 Climbing Los Angeles Center
Mon 10:41:38 PM 35.0547 -119.0661 326° Northwest 466 536 26,300 1,610 Climbing Los Angeles Center
Mon 10:42:40 PM 35.1436 -119.2178 306° West 472 543 28,100 1,597 Climbing Los Angeles Center
Mon 10:43:42 PM 35.2103 -119.3503 302° West 460 529 29,600 1,452 Climbing Los Angeles Center
Mon 10:44:44 PM 35.2717 -119.4811 300° West 451 519 31,100 1,171 Climbing Los Angeles Center
Mon 10:45:45 PM 35.3361 -119.6131 301° West 451 519 32,000 439 Climbing Los Angeles Center
Mon 10:46:47 PM 35.4003 -119.7481 300° West 457 526 32,000  Level Los Angeles Center
Mon 10:47:49 PM 35.4658 -119.8833 301° West 458 527 32,000  Level Los Angeles Center
Mon 10:48:51 PM 35.5431 -120.0467 300° West 466 536 32,000  Level Los Angeles Center
Mon 10:49:52 PM 35.6056 -120.1792 300° West 474 545 32,000  Level Los Angeles Center
Mon 10:50:40 PM 35.6611 -120.2969 300° West 478 550 32,000  Level Oakland Center
Mon 10:51:42 PM 35.7414 -120.4294 307° West 490 564 32,000 -1,220 Level Oakland Center
Mon 10:52:43 PM 35.8247 -120.5547 309° West 482 555 29,500 -2,803 Descending Oakland Center
Mon 10:53:44 PM 35.9050 -120.6758 309° West 463 533 26,300 -2,976 Descending Oakland Center
Mon 10:54:46 PM 35.9819 -120.7919 309° West 443 510 23,400 -2,732 Descending Oakland Center
Mon 10:55:47 PM 36.0711 -120.9253 310° West 424 488 20,700 -1,610 Descending Oakland Center
Mon 10:56:49 PM 36.1461 -121.0350 310° West 421 484 20,100 -341 Descending Oakland Center
Mon 10:57:50 PM 36.2164 -121.1453 308° West 411 473 20,000 -49 Descending Oakland Center
Mon 10:58:51 PM 36.2914 -121.2572 310° West 421 484 20,000  Level Oakland Center
Mon 10:59:53 PM 36.3808 -121.3581 318° Northwest 436 502 20,000  Level Oakland Center
Mon 11:00:54 PM 36.4742 -121.4539 320° Northwest 437 503 20,000  Level Oakland Center
Mon 11:01:55 PM 36.5667 -121.5533 319° Northwest 438 504 20,000  Level Oakland Center
Mon 11:02:56 PM 36.6667 -121.6667 318° Northwest 440 506 20,000 -843 Level Northern Cal TRACON
Mon 11:03:56 PM 36.7667 -121.7667 321° Northwest 421 484 18,300 -1,950 Descending Northern Cal TRACON
Mon 11:04:56 PM 36.8500 -121.8500 321° Northwest 397 457 16,100 -2,100 Descending Northern Cal TRACON
Mon 11:05:56 PM 36.9167 -121.9333 315° West 374 430 14,100 -1,950 Descending Northern Cal TRACON
Mon 11:06:56 PM 37.0000 -122.0167 321° Northwest 356 410 12,200 -1,547 Descending Northern Cal TRACON
Mon 11:08:04 PM 37.1056 -122.0600 342° North 363 418 10,800 -1,023 Descending Oakland Center
Mon 11:09:05 PM 37.2069 -122.0861 348° North 372 428 10,000 -689 Descending Oakland Center
Mon 11:10:06 PM 37.2769 -122.1358 331° Northwest 326 375 9,400 -488 Descending Oakland Center
Mon 11:11:08 PM 37.3117 -122.2228 297° West 290 334 9,000 -293 Descending Oakland Center
Mon 11:12:09 PM 37.3433 -122.3058 296° West 270 311 8,800 -836 Descending Oakland Center
Mon 11:13:10 PM 37.3961 -122.3603 321° Northwest 270 311 7,300 -1,377 Descending Oakland Center
Mon 11:14:11 PM 37.4469 -122.3208 32° Northeast 260 299 6,000 -1,073 Descending Oakland Center
Mon 11:15:13 PM 37.4567 -122.2531 80° East 210 242 5,100 -976 Descending Oakland Center
Mon 11:16:14 PM 37.5008 -122.2053 41° Northeast 184 212 4,000 -885 Descending Oakland Center
Mon 11:17:15 PM 37.5431 -122.1936 12° North 173 199 3,300 -927 Descending Oakland Center
Mon 11:18:17 PM 37.5647 -122.2425 299° West 165 190 2,100 -1,024 Descending Oakland Center
Mon 11:19:18 PM 37.5828 -122.2867 297° West 154 177 1,200 -787 Descending Oakland Center
Mon 11:20:19 PM 37.5994 -122.3269 298° West 142 163 500 -492 Descending Oakland Center
Mon 11:21:20 PM 37.6183 -122.3703 299° West 135 155 200 -295 Descending Oakland Center
Mon 11:23:00 PM 37.6167 -122.3667 322° Northwest  Level FlightAware Approximate

Login

Don't have an account? Register now (free) for customized features, flight alerts, and more!